Time;durP1;ratioP1;P1;durP2;ratioP2;P2;SDS_P1;SDS_P2;PMS_P1;PMS_P2;Temp;Humidity;BMP_temperature;BMP_pressure;BME280_temperature;BME280_humidity;BME280_pressure;Samples;Min_cycle;Max_cycle;Signal;HPM_P1;HPM_P2
2022/11/24 00:04:28;;;;;;;16.40;11.43;;;;;;;-0.62;100.00;99046.66;10505694;28;20401;-71
2022/11/24 00:09:30;;;;;;;16.10;13.23;;;;;;;-0.76;100.00;99046.69;10506013;28;20043;-72
2022/11/24 00:14:32;;;;;;;14.68;11.93;;;;;;;-0.99;100.00;99049.31;10505855;28;20413;-71
2022/11/24 00:19:34;;;;;;;20.60;12.35;;;;;;;-0.80;100.00;99044.97;10505088;28;20036;-71
2022/11/24 00:24:36;;;;;;;16.25;12.40;;;;;;;-1.13;100.00;99049.31;10506620;28;20470;-71
2022/11/24 00:29:37;;;;;;;14.32;12.80;;;;;;;-1.02;100.00;99057.94;10504315;28;20041;-71
2022/11/24 00:34:40;;;;;;;17.63;13.10;;;;;;;-1.03;100.00;99051.03;10503938;28;20060;-71
2022/11/24 00:39:42;;;;;;;14.48;11.25;;;;;;;-0.99;100.00;99057.03;10504576;28;20045;-71
2022/11/24 00:44:44;;;;;;;16.25;11.93;;;;;;;-1.11;100.00;99062.22;10486901;28;20417;-71
2022/11/24 00:49:45;;;;;;;16.10;12.38;;;;;;;-0.95;100.00;99066.50;10485563;28;20066;-71
2022/11/24 00:54:47;;;;;;;14.85;9.98;;;;;;;-1.06;100.00;99074.25;10503089;28;20041;-74
2022/11/24 00:59:49;;;;;;;11.60;10.43;;;;;;;-1.30;100.00;99076.81;10503190;28;20111;-74
2022/11/24 01:04:51;;;;;;;13.30;11.25;;;;;;;-1.07;100.00;99082.84;10505679;28;20123;-74
2022/11/24 01:09:52;;;;;;;12.70;11.05;;;;;;;-0.86;100.00;99084.56;10468818;28;20070;-74
2022/11/24 01:14:54;;;;;;;12.05;10.85;;;;;;;-0.97;100.00;99098.31;10501466;28;20551;-73
2022/11/24 01:19:56;;;;;;;13.20;11.48;;;;;;;-1.01;100.00;99097.47;10502931;28;20051;-74
2022/11/24 01:24:58;;;;;;;12.82;11.25;;;;;;;-1.18;100.00;99102.63;10503204;28;20045;-74
2022/11/24 01:29:59;;;;;;;15.48;12.82;;;;;;;-1.19;100.00;99111.22;10503754;28;20510;-73
2022/11/24 01:35:05;;;;;;;15.43;11.82;;;;;;;-0.89;100.00;99114.66;10501688;28;20050;-74
2022/11/24 01:40:08;;;;;;;12.80;10.73;;;;;;;-0.84;100.00;99112.91;10493450;28;20494;-73
2022/11/24 01:45:31;;;;;;;17.70;10.30;;;;;;;-0.79;100.00;99118.97;10501655;28;20041;-74
2022/11/24 01:50:34;;;;;;;10.38;9.32;;;;;;;-1.22;100.00;99118.09;10502938;28;20119;-73
2022/11/24 01:55:38;;;;;;;12.00;9.75;;;;;;;-1.40;100.00;99124.09;10482436;28;20410;-73
2022/11/24 02:00:44;;;;;;;14.90;9.95;;;;;;;-1.34;100.00;99121.50;10501857;28;20045;-73
2022/11/24 02:06:11;;;;;;;12.00;10.60;;;;;;;-1.54;100.00;99124.91;10500876;28;20064;-73
2022/11/24 02:11:13;;;;;;;13.35;9.20;;;;;;;-1.60;100.00;99127.47;10483326;28;20412;-73
2022/11/24 02:16:14;;;;;;;11.48;9.00;;;;;;;-1.24;100.00;99132.69;10499711;28;20045;-73
2022/11/24 02:21:17;;;;;;;13.93;9.45;;;;;;;-1.09;100.00;99136.16;10499716;28;20041;-73
2022/11/24 02:26:41;;;;;;;16.33;9.32;;;;;;;-1.24;100.00;99136.13;10483507;28;20036;-72
2022/11/24 02:31:48;;;;;;;10.57;9.05;;;;;;;-1.38;100.00;99141.25;10482990;28;20050;-73
2022/11/24 02:36:50;;;;;;;10.32;7.05;;;;;;;-1.48;100.00;99141.25;10499483;28;20051;-73
2022/11/24 02:42:03;;;;;;;10.68;9.27;;;;;;;-1.35;100.00;99132.69;10499348;28;20047;-73
2022/11/24 02:47:11;;;;;;;16.80;9.77;;;;;;;-1.24;100.00;99135.25;10499258;28;20041;-72
2022/11/24 02:52:12;;;;;;;;;;;;;;;-1.32;100.00;99149.03;10501521;28;20072;-73
2022/11/24 02:57:14;;;;;;;14.00;9.85;;;;;;;-1.31;100.00;99145.59;10498825;28;19920;-72
2022/11/24 03:02:16;;;;;;;15.52;9.32;;;;;;;-1.49;100.00;99144.69;10482177;28;20044;-73
2022/11/24 03:07:18;;;;;;;12.57;9.32;;;;;;;-1.56;100.00;99149.81;10482603;28;20075;-72
2022/11/24 03:12:20;;;;;;;13.20;8.38;;;;;;;-1.53;100.00;99156.69;10480482;28;20131;-73
2022/11/24 03:17:21;;;;;;;9.93;8.95;;;;;;;-1.46;100.00;99152.41;10498425;28;20482;-72
2022/11/24 03:22:23;;;;;;;9.00;7.70;;;;;;;-1.35;100.00;99151.59;10480135;28;20087;-73
2022/11/24 03:27:25;;;;;;;9.45;8.27;;;;;;;-1.30;100.00;99161.91;10498895;28;20474;-72
2022/11/24 03:32:27;;;;;;;13.20;8.52;;;;;;;-1.58;100.00;99161.00;10498032;28;20047;-72
2022/11/24 03:37:29;;;;;;;10.27;9.18;;;;;;;-1.36;100.00;99169.63;10487532;28;20051;-72
2022/11/24 03:42:31;;;;;;;16.15;7.55;;;;;;;-1.50;100.00;99158.44;10506513;28;20139;-73
2022/11/24 03:47:32;;;;;;;10.27;7.63;;;;;;;-1.76;100.00;99164.38;10488438;28;20125;-73
2022/11/24 03:52:34;;;;;;;11.27;9.20;;;;;;;-1.50;100.00;99169.59;10488415;28;20102;-73
2022/11/24 03:57:36;;;;;;;9.15;7.78;;;;;;;-1.55;100.00;99181.59;10490832;28;20131;-73
2022/11/24 04:02:38;;;;;;;9.70;8.48;;;;;;;-1.54;100.00;99180.75;10506891;28;20054;-73
2022/11/24 04:07:40;;;;;;;11.82;9.55;;;;;;;-1.64;100.00;99190.19;10505431;28;20482;-72
2022/11/24 04:12:44;;;;;;;10.32;9.23;;;;;;;-1.51;100.00;99193.63;10505563;28;20139;-73
2022/11/24 04:17:47;;;;;;;10.80;9.70;;;;;;;-1.55;100.00;99191.91;10505658;28;20115;-73
2022/11/24 04:22:50;;;;;;;17.02;8.75;;;;;;;-1.62;100.00;99196.19;10501165;28;20048;-73
2022/11/24 04:27:53;;;;;;;13.15;9.50;;;;;;;-1.55;100.00;99195.38;10504546;28;20040;-74
2022/11/24 04:32:56;;;;;;;12.40;9.65;;;;;;;-1.61;100.00;99197.91;10502849;28;20044;-73
2022/11/24 04:38:01;;;;;;;13.88;10.65;;;;;;;-1.35;100.00;99208.31;10504589;28;20068;-73
2022/11/24 04:43:03;;;;;;;11.27;9.93;;;;;;;-1.18;100.00;99218.66;10504790;28;20055;-73
2022/11/24 04:48:05;;;;;;;12.07;9.25;;;;;;;-1.47;100.00;99223.72;10503910;28;20044;-73
2022/11/24 04:53:09;;;;;;;11.00;9.68;;;;;;;-1.57;100.00;99234.88;10504163;28;20490;-73
2022/11/24 04:58:10;;;;;;;14.30;10.38;;;;;;;-1.70;100.00;99236.53;10503953;28;20043;-73
2022/11/24 05:03:14;;;;;;;14.00;11.55;;;;;;;-0.98;100.00;99236.75;10487477;28;20044;-73
2022/11/24 05:08:32;;;;;;;14.68;11.45;;;;;;;-1.29;100.00;99252.13;10506963;28;20045;-74
2022/11/24 05:13:34;;;;;;;16.65;12.00;;;;;;;-1.35;100.00;99248.69;10485477;28;20044;-73
2022/11/24 05:18:36;;;;;;;14.50;11.57;;;;;;;-1.12;100.00;99244.47;10502504;28;20047;-73
2022/11/24 05:23:38;;;;;;;16.88;13.43;;;;;;;-1.00;100.00;99263.41;10504996;28;20090;-73
2022/11/24 05:28:40;;;;;;;26.77;15.75;;;;;;;-1.18;100.00;99265.09;10503191;28;20047;-74
2022/11/24 05:33:42;;;;;;;18.00;15.93;;;;;;;-1.02;100.00;99272.03;10503283;28;20066;-75
2022/11/24 05:38:43;;;;;;;20.40;15.00;;;;;;;-1.07;100.00;99275.41;10503277;28;20044;-75
2022/11/24 05:43:45;;;;;;;28.80;18.38;;;;;;;-0.96;100.00;99288.38;10504518;28;20047;-74
2022/11/24 05:48:47;;;;;;;33.03;19.35;;;;;;;-1.02;100.00;99286.59;10487402;28;20044;-74
2022/11/24 05:53:49;;;;;;;35.40;20.10;;;;;;;-0.89;100.00;99290.09;10470860;28;20040;-74
2022/11/24 05:58:50;;;;;;;30.83;17.63;;;;;;;-0.83;100.00;99297.84;10501948;28;20037;-74
2022/11/24 06:03:52;;;;;;;32.47;21.73;;;;;;;-0.87;100.00;99306.44;10501489;28;20055;-74
2022/11/24 06:08:53;;;;;;;31.85;21.02;;;;;;;-0.88;100.00;99312.47;10502360;28;20048;-74
2022/11/24 06:13:55;;;;;;;27.65;19.75;;;;;;;-0.62;100.00;99315.97;10501230;28;20059;-74
2022/11/24 06:18:58;;;;;;;30.42;18.67;;;;;;;-0.43;100.00;99326.31;10482652;28;20067;-74
2022/11/24 06:24:01;;;;;;;30.52;18.80;;;;;;;-0.55;100.00;99328.00;10466878;28;20054;-73
2022/11/24 06:29:03;;;;;;;37.70;19.52;;;;;;;-0.47;100.00;99330.59;10503255;28;20100;-74
2022/11/24 06:34:10;;;;;;;33.50;20.10;;;;;;;-0.22;100.00;99339.25;10501793;28;20465;-73
2022/11/24 06:39:12;;;;;;;33.72;19.70;;;;;;;-0.34;100.00;99334.06;10501154;28;20449;-73
2022/11/24 06:44:13;;;;;;;21.30;18.95;;;;;;;-0.46;100.00;99344.38;10499813;28;20098;-73
2022/11/24 06:49:15;;;;;;;22.40;17.70;;;;;;;-0.45;100.00;99351.25;10501004;28;20461;-73
2022/11/24 06:54:20;;;;;;;24.63;19.05;;;;;;;-0.38;100.00;99351.28;10482419;28;20070;-74
2022/11/24 06:59:21;;;;;;;21.42;19.02;;;;;;;-0.29;100.00;99359.03;10499143;28;20047;-74
2022/11/24 07:04:23;;;;;;;32.50;20.15;;;;;;;-0.07;100.00;99359.06;10499153;28;20049;-74
2022/11/24 07:09:25;;;;;;;22.67;18.33;;;;;;;-0.07;100.00;99372.81;10480295;28;20414;-73
2022/11/24 07:14:26;;;;;;;18.52;16.35;;;;;;;0.03;100.00;99367.66;10500642;28;20048;-68
2022/11/24 07:19:28;;;;;;;25.38;17.50;;;;;;;0.06;100.00;99376.28;10480567;28;20067;-68
2022/11/24 07:24:30;;;;;;;29.67;19.08;;;;;;;0.24;100.00;99375.41;10498117;28;20052;-68
2022/11/24 07:29:32;;;;;;;32.45;18.63;;;;;;;0.43;100.00;99384.00;10498477;28;20456;-68
2022/11/24 07:34:33;;;;;;;36.83;18.05;;;;;;;0.25;100.00;99390.03;10499564;28;20420;-68
2022/11/24 07:39:35;;;;;;;26.42;17.65;;;;;;;0.35;100.00;99396.06;10480688;28;20090;-69
2022/11/24 07:44:37;;;;;;;22.42;17.38;;;;;;;0.38;100.00;99404.69;10499185;28;20504;-69
2022/11/24 07:49:39;;;;;;;27.50;17.92;;;;;;;0.44;100.00;99414.16;10479150;28;20041;-69
2022/11/24 07:54:40;;;;;;;33.65;19.42;;;;;;;0.58;100.00;99407.25;10497842;28;20048;-69
2022/11/24 07:59:42;;;;;;;27.65;19.60;;;;;;;0.73;100.00;99408.94;10479116;28;20040;-69
2022/11/24 08:04:44;;;;;;;33.42;18.75;;;;;;;0.88;100.00;99410.63;10498032;28;20113;-70
2022/11/24 08:09:45;;;;;;;43.08;19.55;;;;;;;0.87;100.00;99409.78;10498735;28;20044;-71
2022/11/24 08:14:49;;;;;;;34.00;20.67;;;;;;;1.12;100.00;99402.81;10498454;28;20047;-72
2022/11/24 08:19:50;;;;;;;33.47;20.77;;;;;;;1.12;100.00;99407.13;10498602;28;20036;-71
2022/11/24 08:24:52;;;;;;;25.42;19.55;;;;;;;1.33;100.00;99406.16;10506250;28;20074;-71
2022/11/24 08:29:54;;;;;;;24.77;18.83;;;;;;;1.42;100.00;99414.75;10504584;28;20516;-71
2022/11/24 08:34:56;;;;;;;26.33;21.50;;;;;;;1.49;100.00;99411.25;10505748;28;20443;-71
2022/11/24 08:40:14;;;;;;;22.85;20.08;;;;;;;1.71;100.00;99421.50;10506661;28;20116;-71
2022/11/24 08:45:16;;;;;;;26.58;19.83;;;;;;;1.82;100.00;99413.69;10470206;28;20473;-71
2022/11/24 08:50:24;;;;;;;39.67;21.38;;;;;;;1.64;100.00;99415.50;10504054;28;20115;-71
2022/11/24 08:55:26;;;;;;;27.52;21.23;;;;;;;1.76;100.00;99419.75;10486181;28;20094;-71
2022/11/24 09:00:28;;;;;;;25.63;18.85;;;;;;;1.81;100.00;99423.16;10504513;28;20044;-71
2022/11/24 09:05:30;;;;;;;28.55;19.33;;;;;;;1.87;100.00;99428.31;10505223;28;20048;-71
2022/11/24 09:10:53;;;;;;;37.50;21.42;;;;;;;1.89;100.00;99423.97;10503430;28;20040;-71
2022/11/24 09:15:55;;;;;;;34.40;20.00;;;;;;;1.86;100.00;99430.91;10503983;28;20488;-71
2022/11/24 09:21:09;;;;;;;22.08;18.80;;;;;;;1.88;100.00;99435.22;10487355;28;20044;-71
2022/11/24 09:26:16;;;;;;;43.92;22.83;;;;;;;1.88;100.00;99440.41;10484543;28;20049;-68
2022/11/24 09:31:24;;;;;;;53.53;25.58;;;;;;;2.14;100.00;99441.97;10501992;28;20045;-68
2022/11/24 09:36:27;;;;;;;28.55;21.42;;;;;;;2.12;100.00;99441.09;10483630;28;20375;-69
2022/11/24 09:41:28;;;;;;;27.70;20.73;;;;;;;2.26;100.00;99434.97;10502078;28;20041;-68
2022/11/24 09:46:51;;;;;;;20.00;18.02;;;;;;;2.51;100.00;99445.97;10502362;28;20452;-69
2022/11/24 09:51:55;;;;;;;19.85;17.83;;;;;;;2.56;100.00;99445.06;10483501;28;20522;-69
2022/11/24 09:56:59;;;;;;;20.65;17.17;;;;;;;2.84;100.00;99449.16;10500198;28;20049;-68
2022/11/24 10:02:01;;;;;;;17.42;15.70;;;;;;;2.96;100.00;99454.19;10495582;28;20051;-69
2022/11/24 10:07:28;;;;;;;23.45;17.40;;;;;;;2.65;100.00;99458.81;10474553;28;20040;-69
2022/11/24 10:13:11;;;;;;;19.63;17.58;;;;;;;2.73;100.00;99457.03;10496492;28;20055;-69
2022/11/24 10:18:26;;;;;;;18.23;16.48;;;;;;;2.57;100.00;99451.97;10478773;28;20453;-68
2022/11/24 10:23:40;;;;;;;17.83;16.17;;;;;;;2.88;100.00;99458.63;10462997;28;20048;-68
2022/11/24 10:28:54;;;;;;;21.13;18.30;;;;;;;3.03;100.00;99455.88;10499175;28;20504;-68
2022/11/24 10:34:00;;;;;;;21.63;19.45;;;;;;;2.87;100.00;99459.47;10497666;28;20513;-68
2022/11/24 10:39:11;;;;;;;21.48;16.67;;;;;;;3.27;100.00;99451.28;10496389;28;20036;-69
2022/11/24 10:44:14;;;;;;;17.60;16.05;;;;;;;3.20;100.00;99453.09;10497076;28;20044;-68
2022/11/24 10:49:25;;;;;;;19.45;16.20;;;;;;;3.30;100.00;99453.84;10519558;28;20464;-68
2022/11/24 10:54:27;;;;;;;18.17;16.38;;;;;;;3.28;100.00;99453.00;10521833;28;20059;-68
2022/11/24 10:59:38;;;;;;;19.33;15.65;;;;;;;3.39;100.00;99448.53;10486849;28;20406;-68
2022/11/24 11:04:40;;;;;;;21.60;16.13;;;;;;;3.54;100.00;99447.47;10468168;28;20459;-68
2022/11/24 11:09:41;;;;;;;23.63;17.00;;;;;;;3.35;100.00;99456.38;10456679;28;20045;-68
2022/11/24 11:14:46;;;;;;;19.33;17.40;;;;;;;3.69;100.00;99447.28;10509815;28;20117;-68
2022/11/24 11:19:50;;;;;;;25.17;19.95;;;;;;;3.47;100.00;99451.03;10540208;28;20044;-68
2022/11/24 11:25:21;;;;;;;20.80;18.60;;;;;;;3.75;100.00;99444.59;10539974;28;20391;-68
2022/11/24 11:30:26;;;;;;;24.40;17.83;;;;;;;3.83;100.00;99460.09;10521439;28;20058;-68
2022/11/24 11:35:49;;;;;;;24.65;18.98;;;;;;;3.84;100.00;99446.22;10525213;28;20509;-68
2022/11/24 11:40:51;;;;;;;27.23;19.10;;;;;;;3.84;100.00;99451.41;10521020;28;20036;-68
2022/11/24 11:46:16;;;;;;;61.40;26.13;;;;;;;3.92;100.00;99451.31;10539213;28;20044;-68
2022/11/24 11:51:21;;;;;;;40.38;24.20;;;;;;;4.04;100.00;99459.81;10539569;28;20036;-67
2022/11/24 11:56:29;;;;;;;26.63;17.63;;;;;;;4.19;100.00;99468.25;10524341;28;20486;-68
2022/11/24 12:01:37;;;;;;;29.83;18.52;;;;;;;4.22;100.00;99468.22;10529052;28;20794;-68
2022/11/24 12:06:50;;;;;;;21.45;15.98;;;;;;;4.14;100.00;99463.13;10548102;28;20039;-68
2022/11/24 12:12:19;;;;;;;27.55;18.75;;;;;;;4.15;100.00;99458.78;10547718;28;20036;-68
2022/11/24 12:17:33;;;;;;;25.58;18.85;;;;;;;4.13;100.00;99457.97;10530066;28;20372;-68
2022/11/24 12:22:51;;;;;;;26.52;19.45;;;;;;;4.60;100.00;99462.38;10547374;28;20050;-68
2022/11/24 12:28:10;;;;;;;27.95;20.63;;;;;;;4.65;100.00;99467.50;10546669;28;20036;-68
2022/11/24 12:33:26;;;;;;;32.75;21.75;;;;;;;4.70;100.00;99470.94;10546689;28;20044;-68
2022/11/24 12:38:46;;;;;;;25.75;21.33;;;;;;;4.69;100.00;99474.38;10528655;28;20501;-68
2022/11/24 12:43:55;;;;;;;27.70;22.88;;;;;;;5.03;100.00;99479.88;10546246;28;20036;-68
2022/11/24 12:49:23;;;;;;;29.33;22.98;;;;;;;4.71;100.00;99490.88;10527547;28;20409;-68
2022/11/24 12:54:34;;;;;;;40.28;24.40;;;;;;;4.74;100.00;99486.47;10545798;28;20142;-72
2022/11/24 12:59:45;;;;;;;39.28;26.90;;;;;;;4.93;100.00;99484.41;10548614;28;20048;-72
2022/11/24 13:05:00;;;;;;;30.63;25.05;;;;;;;4.89;100.00;99489.69;10546467;28;20093;-72
2022/11/24 13:10:24;;;;;;;36.28;24.90;;;;;;;5.12;100.00;99489.28;10546416;28;20040;-72
2022/11/24 13:15:52;;;;;;;35.35;24.92;;;;;;;5.06;100.00;99485.91;10546081;28;20118;-73
2022/11/24 13:21:35;;;;;;;30.80;25.08;;;;;;;5.16;100.00;99493.53;10547691;28;20032;-72
2022/11/24 13:26:37;;;;;;;24.75;21.63;;;;;;;5.18;100.00;99499.56;10546490;28;20047;-68
2022/11/24 13:31:42;;;;;;;35.20;24.35;;;;;;;5.30;100.00;99502.81;10544485;28;20082;-69
2022/11/24 13:36:52;;;;;;;32.88;24.05;;;;;;;5.45;100.00;99508.66;10544145;28;20138;-69
2022/11/24 13:41:54;;;;;;;29.40;24.02;;;;;;;5.29;100.00;99519.34;10543823;28;20054;-69
2022/11/24 13:47:25;;;;;;;33.53;23.45;;;;;;;5.41;100.00;99515.66;10544974;28;20044;-69
2022/11/24 13:52:39;;;;;;;29.15;24.05;;;;;;;5.30;100.00;99522.81;10540551;28;20514;-69
2022/11/24 13:58:17;;;;;;;36.65;25.92;;;;;;;5.14;100.00;99521.38;10543332;28;20081;-69
2022/11/24 14:03:25;;;;;;;30.15;23.30;;;;;;;5.12;100.00;99517.94;10518341;28;20052;-69
2022/11/24 14:08:33;;;;;;;32.92;24.60;;;;;;;5.05;100.00;99525.88;10543059;28;20044;-68
2022/11/24 14:13:35;;;;;;;29.20;23.33;;;;;;;5.17;100.00;99529.97;10525071;28;20040;-68
2022/11/24 14:18:42;;;;;;;36.70;24.48;;;;;;;5.00;100.00;99538.13;10540828;28;20058;-67
2022/11/24 14:23:46;;;;;;;;;;;;;;;4.92;100.00;99546.94;10541613;28;20490;-68
2022/11/24 14:28:48;;;;;;;40.42;26.67;;;;;;;5.01;100.00;99550.25;10541221;28;19927;-68
2022/11/24 14:34:22;;;;;;;41.33;26.23;;;;;;;5.00;100.00;99558.06;10524140;28;20040;-68
2022/11/24 14:39:25;;;;;;;44.38;26.60;;;;;;;5.01;100.00;99562.41;10540466;28;20036;-68
2022/11/24 14:44:30;;;;;;;38.50;26.40;;;;;;;4.89;100.00;99571.28;10542102;28;20101;-68
2022/11/24 14:49:36;;;;;;;38.90;26.80;;;;;;;5.09;100.00;99570.06;10540099;28;20044;-68
2022/11/24 14:55:00;;;;;;;41.25;26.33;;;;;;;4.96;100.00;99579.88;10541334;28;20067;-68
2022/11/24 15:00:26;;;;;;;41.47;25.42;;;;;;;4.79;100.00;99586.19;10540090;28;20382;-68
2022/11/24 15:05:51;;;;;;;36.30;21.47;;;;;;;4.69;100.00;99602.84;10539739;28;20048;-69
2022/11/24 15:10:59;;;;;;;53.88;29.33;;;;;;;4.71;100.00;99605.41;10540100;28;20048;-70
2022/11/24 15:16:05;;;;;;;45.97;27.92;;;;;;;4.77;100.00;99602.72;10541769;28;20552;-71
2022/11/24 15:21:07;;;;;;;46.78;29.15;;;;;;;4.74;100.00;99603.63;10539927;28;20044;-71
2022/11/24 15:26:16;;;;;;;44.40;28.88;;;;;;;4.72;100.00;99605.38;10540383;28;20040;-70
2022/11/24 15:31:17;;;;;;;42.63;28.30;;;;;;;4.68;100.00;99616.72;10520684;28;20040;-71
2022/11/24 15:36:19;;;;;;;50.17;29.92;;;;;;;4.70;100.00;99632.34;10540899;28;20035;-71
2022/11/24 15:41:31;;;;;;;45.20;28.15;;;;;;;4.70;100.00;99632.34;10540336;28;20036;-71
2022/11/24 15:46:36;;;;;;;48.08;30.73;;;;;;;4.78;100.00;99638.28;10526872;28;20050;-70
2022/11/24 15:51:43;;;;;;;43.13;28.63;;;;;;;5.00;100.00;99644.91;10539936;28;20067;-70
2022/11/24 15:56:45;;;;;;;50.72;29.85;;;;;;;4.76;100.00;99643.50;10521192;28;20044;-71
2022/11/24 16:01:49;;;;;;;61.78;32.15;;;;;;;4.76;100.00;99642.66;10541064;28;20040;-71
2022/11/24 16:06:51;;;;;;;54.05;30.52;;;;;;;4.64;100.00;99645.44;10538935;28;20040;-71
2022/11/24 16:11:52;;;;;;;69.35;32.60;;;;;;;4.59;100.00;99652.44;10539646;28;20048;-71
2022/11/24 16:16:54;;;;;;;51.47;30.42;;;;;;;4.54;100.00;99650.75;10539367;28;20405;-71
2022/11/24 16:21:56;;;;;;;63.42;33.92;;;;;;;4.55;100.00;99657.69;10524016;28;20094;-71
2022/11/24 16:26:58;;;;;;;50.47;31.42;;;;;;;4.47;100.00;99667.34;10539451;28;20390;-71
2022/11/24 16:32:00;;;;;;;47.63;29.67;;;;;;;4.32;100.00;99664.94;10539313;28;20453;-71
2022/11/24 16:37:02;;;;;;;52.10;31.30;;;;;;;4.23;100.00;99667.66;10538590;28;20044;-70
2022/11/24 16:42:03;;;;;;;60.55;35.75;;;;;;;4.10;100.00;99671.28;10543697;28;20036;-71
2022/11/24 16:47:05;;;;;;;71.47;37.00;;;;;;;4.11;100.00;99671.25;10546437;28;20485;-70
2022/11/24 16:52:07;;;;;;;63.83;35.85;;;;;;;4.15;100.00;99678.13;10527180;28;20409;-71
2022/11/24 16:57:11;;;;;;;58.08;32.92;;;;;;;4.01;100.00;99678.28;10527462;28;20448;-71
2022/11/24 17:02:15;;;;;;;72.50;36.22;;;;;;;4.08;100.00;99686.91;10545766;28;20036;-71
2022/11/24 17:07:19;;;;;;;76.43;38.80;;;;;;;4.16;100.00;99689.41;10546296;28;20409;-71
2022/11/24 17:12:21;;;;;;;90.15;51.35;;;;;;;4.26;100.00;99691.91;10525792;28;20048;-70
2022/11/24 17:17:23;;;;;;;65.68;38.80;;;;;;;4.25;100.00;99697.09;10542710;28;20055;-70
2022/11/24 17:22:24;;;;;;;132.73;80.82;;;;;;;4.21;100.00;99698.91;10542906;28;20048;-71
2022/11/24 17:27:26;;;;;;;101.90;54.17;;;;;;;4.20;100.00;99704.09;10540642;28;20075;-70
2022/11/24 17:32:28;;;;;;;79.03;42.42;;;;;;;4.18;100.00;99714.53;10521026;28;20047;-71
2022/11/24 17:37:31;;;;;;;129.70;82.05;;;;;;;4.53;100.00;99714.13;10520006;28;20046;-70
2022/11/24 17:42:33;;;;;;;91.68;51.65;;;;;;;4.47;100.00;99715.91;10540690;28;20489;-71
2022/11/24 17:47:34;;;;;;;79.55;44.20;;;;;;;4.26;100.00;99715.31;10526474;28;20491;-71
2022/11/24 17:52:36;;;;;;;67.85;38.90;;;;;;;4.55;100.00;99722.75;10542268;28;20043;-71
2022/11/24 17:57:38;;;;;;;68.57;38.58;;;;;;;4.37;100.00;99729.94;10541939;28;20110;-71
2022/11/24 18:02:40;;;;;;;60.78;36.15;;;;;;;4.04;100.00;99732.03;10538736;28;20054;-70
2022/11/24 18:07:41;;;;;;;80.05;41.78;;;;;;;4.00;100.00;99728.59;10540926;28;20531;-70
2022/11/24 18:12:43;;;;;;;59.03;36.03;;;;;;;3.93;100.00;99739.91;10523461;28;20497;-72
2022/11/24 18:17:45;;;;;;;54.38;35.90;;;;;;;4.11;100.00;99736.28;10523204;28;20436;-71
2022/11/24 18:22:47;;;;;;;66.80;36.72;;;;;;;4.17;100.00;99741.44;10539218;28;20044;-71
2022/11/24 18:28:08;;;;;;;80.70;41.53;;;;;;;3.86;100.00;99737.41;10540013;28;20040;-70
2022/11/24 18:33:10;;;;;;;58.38;35.72;;;;;;;3.78;100.00;99746.13;10546621;28;20047;-69
2022/11/24 18:38:12;;;;;;;64.53;36.72;;;;;;;3.86;100.00;99751.28;10523159;28;20043;-69
2022/11/24 18:43:14;;;;;;;63.45;37.22;;;;;;;3.63;100.00;99750.59;10524421;28;20055;-68
2022/11/24 18:48:15;;;;;;;73.38;39.40;;;;;;;3.69;100.00;99759.22;10542630;28;20435;-68
2022/11/24 18:53:19;;;;;;;82.30;43.05;;;;;;;3.68;100.00;99752.28;10550277;22;20043;-72
2022/11/24 18:58:21;;;;;;;87.68;46.70;;;;;;;4.22;100.00;99763.06;10471934;28;20048;-72
2022/11/24 19:03:23;;;;;;;91.25;46.60;;;;;;;4.30;100.00;99758.63;10505282;28;20493;-73
2022/11/24 19:08:25;;;;;;;80.70;42.50;;;;;;;4.21;100.00;99757.88;10507512;28;20047;-73
2022/11/24 19:13:27;;;;;;;75.32;41.92;;;;;;;4.16;100.00;99760.53;10504627;28;20044;-73
2022/11/24 19:18:29;;;;;;;78.30;42.67;;;;;;;4.43;100.00;99759.38;10486258;28;20123;-71
2022/11/24 19:23:31;;;;;;;75.82;41.45;;;;;;;4.30;100.00;99756.03;10484099;28;20052;-72
2022/11/24 19:28:33;;;;;;;84.30;43.33;;;;;;;4.18;100.00;99765.69;10484120;28;20041;-71
2022/11/24 19:33:35;;;;;;;77.63;44.20;;;;;;;4.13;100.00;99773.56;10502200;28;20040;-72
2022/11/24 19:38:38;;;;;;;76.15;44.28;;;;;;;4.18;100.00;99773.50;10502606;28;20047;-73
2022/11/24 19:43:40;;;;;;;79.55;42.60;;;;;;;4.09;100.00;99765.78;10483509;28;20048;-72
2022/11/24 19:48:53;;;;;;;79.55;44.65;;;;;;;4.04;100.00;99764.09;10501215;28;20445;-72
2022/11/24 19:53:55;;;;;;;85.85;45.50;;;;;;;4.01;100.00;99774.53;10466963;28;20076;-71
2022/11/24 19:58:57;;;;;;;93.57;49.63;;;;;;;4.04;100.00;99782.31;10501054;28;20044;-72
2022/11/24 20:04:04;;;;;;;105.57;56.03;;;;;;;3.99;100.00;99786.69;10484091;28;20181;-71
2022/11/24 20:09:07;;;;;;;;;;;;;;;4.12;100.00;99791.75;10502068;28;20409;-71
2022/11/24 20:14:14;;;;;;;107.55;53.45;;;;;;;4.00;100.00;99798.81;10503018;28;19920;-72
2022/11/24 20:19:16;;;;;;;109.70;59.83;;;;;;;4.09;100.00;99800.47;10490292;28;20496;-72
2022/11/24 20:24:21;;;;;;;103.82;56.72;;;;;;;4.36;100.00;99811.50;10493654;28;20087;-73
2022/11/24 20:29:23;;;;;;;105.90;54.47;;;;;;;4.45;100.00;99814.84;10509336;28;20053;-72
2022/11/24 20:34:25;;;;;;;78.15;44.15;;;;;;;4.27;100.00;99825.44;10492795;28;20054;-72
2022/11/24 20:39:28;;;;;;;84.07;44.78;;;;;;;4.12;100.00;99823.84;10509252;28;20065;-73
2022/11/24 20:44:30;;;;;;;89.53;45.72;;;;;;;4.12;100.00;99821.25;10490220;28;20049;-71
2022/11/24 20:49:32;;;;;;;78.15;43.88;;;;;;;4.21;100.00;99833.31;10489290;28;20044;-72
2022/11/24 20:54:33;;;;;;;91.18;48.22;;;;;;;4.21;100.00;99828.97;10507798;28;20471;-72
2022/11/24 20:59:35;;;;;;;90.00;47.75;;;;;;;4.07;100.00;99827.34;10507539;28;20044;-71
2022/11/24 21:04:37;;;;;;;79.72;42.67;;;;;;;4.36;100.00;99833.16;10507835;28;20049;-72
2022/11/24 21:09:39;;;;;;;84.65;44.33;;;;;;;4.11;100.00;99840.31;10507626;28;20119;-71
2022/11/24 21:14:41;;;;;;;75.68;41.95;;;;;;;4.10;100.00;99842.94;10489982;28;20104;-71
2022/11/24 21:19:42;;;;;;;83.50;41.20;;;;;;;4.08;100.00;99847.31;10490283;28;20041;-71
2022/11/24 21:24:44;;;;;;;93.60;47.10;;;;;;;4.02;100.00;99850.81;10506642;28;20047;-71
2022/11/24 21:29:46;;;;;;;80.85;42.92;;;;;;;4.01;100.00;99856.88;10503185;28;20044;-72
2022/11/24 21:34:48;;;;;;;95.72;45.22;;;;;;;3.99;100.00;99849.09;10487228;28;20052;-71
2022/11/24 21:39:50;;;;;;;81.20;41.17;;;;;;;4.07;100.00;99846.41;10487069;28;20068;-71
2022/11/24 21:44:51;;;;;;;89.97;44.63;;;;;;;4.35;100.00;99854.00;10488288;28;20410;-71
2022/11/24 21:49:53;;;;;;;81.18;41.92;;;;;;;4.17;100.00;99861.09;10504959;28;20043;-72
2022/11/24 21:54:55;;;;;;;69.13;37.75;;;;;;;4.26;100.00;99862.75;10504950;28;20524;-71
2022/11/24 21:59:57;;;;;;;70.07;39.25;;;;;;;4.21;100.00;99864.53;10503316;28;20430;-71
2022/11/24 22:04:58;;;;;;;84.93;43.42;;;;;;;4.10;100.00;99874.16;10504517;28;20048;-71
2022/11/24 22:10:00;;;;;;;95.85;43.85;;;;;;;4.07;100.00;99868.97;10502690;28;20044;-71
2022/11/24 22:15:02;;;;;;;88.57;44.88;;;;;;;4.06;100.00;99868.13;10503367;28;20051;-71
2022/11/24 22:20:04;;;;;;;90.60;45.13;;;;;;;4.00;100.00;99869.03;10502973;28;20048;-70
2022/11/24 22:25:07;;;;;;;81.72;40.03;;;;;;;4.11;100.00;99868.94;10469170;28;20135;-71
2022/11/24 22:30:09;;;;;;;88.57;51.50;;;;;;;4.38;100.00;99873.03;10502203;28;20051;-72
2022/11/24 22:35:11;;;;;;;56.60;33.40;;;;;;;4.45;100.00;99868.66;10484800;28;20060;-71
2022/11/24 22:40:12;;;;;;;85.82;39.53;;;;;;;4.26;100.00;99871.44;10483529;28;20044;-71
2022/11/24 22:45:14;;;;;;;75.55;38.88;;;;;;;4.16;100.00;99880.19;10484516;28;20075;-71
2022/11/24 22:50:16;;;;;;;79.70;39.20;;;;;;;4.11;100.00;99883.69;10501947;28;20063;-71
2022/11/24 22:55:18;;;;;;;69.20;35.85;;;;;;;4.22;100.00;99897.47;10482849;28;20051;-70
2022/11/24 23:00:19;;;;;;;68.93;35.88;;;;;;;4.20;100.00;99897.47;10483461;28;20429;-70
2022/11/24 23:05:21;;;;;;;65.82;32.92;;;;;;;4.22;100.00;99903.53;10501246;28;20063;-71
2022/11/24 23:10:23;;;;;;;34.20;24.48;;;;;;;4.26;100.00;99907.00;10482587;28;20045;-71